logo tempoitalia

Diretta Meteo Hobbs-Lea Co, Stati Uniti (USA)lunedì 31 agosto ore 00:15

Mappa
Sereno 26 °C Sereno 24 Ore: T.min 22 T.max 37
Ponente Sud Km/h 13 Punto di rugiada: 11 °C Umidità: 39% Visibilità: 10 Km
Il sole sorge alle: 06:27 Il sole tramonta alle: 19:19
31 Agosto 2026 00:15 tempo osservato: Sereno Sereno 26 39 1017 vento: Nord S 13
30 Agosto 2026 23:55 tempo osservato: Sereno Sereno 27 36 1017 vento: Nord S 14.8
30 Agosto 2026 23:35 tempo osservato: Sereno Sereno 27 34 1017 vento: Nord S 14.8
30 Agosto 2026 23:15 tempo osservato: Sereno Sereno 26 36 1017 vento: Nord S/SE 11.1
30 Agosto 2026 22:55 tempo osservato: Sereno Sereno 27 34 1017 vento: Nord S/SE 13
30 Agosto 2026 22:35 tempo osservato: Sereno Sereno 27 36 1017 vento: Nord S/SE 13
30 Agosto 2026 22:15 tempo osservato: Sereno Sereno 28 34 1017 vento: Nord SE 13
30 Agosto 2026 21:55 tempo osservato: Sereno Sereno 29 32 1017 vento: Nord SE 14.8
30 Agosto 2026 21:35 tempo osservato: Sereno Sereno 29 32 1017 vento: Nord SE 16.7
30 Agosto 2026 21:15 tempo osservato: Sereno Sereno 30 30 1016 vento: Nord SE 20.3
30 Agosto 2026 20:55 tempo osservato: Sereno Sereno 30 28 1016 vento: Nord SE 16.7
30 Agosto 2026 20:35 tempo osservato: Sereno Sereno 31 25 1016 vento: Nord E/SE 14.8
30 Agosto 2026 20:15 tempo osservato: Sereno Sereno 31 25 1015 vento: Nord SE 14.8
30 Agosto 2026 19:35 tempo osservato: Sereno Sereno 33 22 1015 vento: Nord SE 16.7
30 Agosto 2026 19:15 tempo osservato: Molto Nuvoloso Molto Nuvoloso 34 21 1015 vento: Nord SE 18.5
30 Agosto 2026 18:35 tempo osservato: Nuvoloso Nuvoloso 35 20 1015 vento: Nord S/SE 13
30 Agosto 2026 18:15 tempo osservato: Poco Nuvoloso Poco Nuvoloso 35 20 1015 vento: Nord S 14.8
30 Agosto 2026 17:50 tempo osservato: Sereno Sereno 36 18 1015 vento: Nord E/SE 14.8
30 Agosto 2026 16:50 tempo osservato: Sereno Sereno 36 18 1015 vento: Nord E/SE 14.8
30 Agosto 2026 15:50 tempo osservato: Sereno Sereno 37 15 1015 vento: Nord E/SE 18.5
30 Agosto 2026 14:50 tempo osservato: Sereno Sereno 36 18 1016 vento: Nord E/SE 7.4
30 Agosto 2026 13:50 tempo osservato: Sereno Sereno 36 18 1017 vento: Nord E 9.3
30 Agosto 2026 12:50 tempo osservato: Sereno Sereno 35 20 1018 vento: Nord E 16.7
30 Agosto 2026 11:50 tempo osservato: Sereno Sereno 33 24 1018 vento: Nord SE 13
30 Agosto 2026 10:50 tempo osservato: Sereno Sereno 32 31 1019 vento: Nord S/SE 13
30 Agosto 2026 09:50 tempo osservato: Sereno Sereno 29 42 1019 vento: Nord S 14.8
30 Agosto 2026 08:50 tempo osservato: Sereno Sereno 27 47 1019 vento: Nord S 25.9
30 Agosto 2026 07:50 tempo osservato: Sereno Sereno 25 53 1019 vento: Nord S 18.5
30 Agosto 2026 06:50 tempo osservato: Sereno Sereno 22 60 1019 vento: Nord S 13
30 Agosto 2026 05:50 tempo osservato: Sereno Sereno 22 60 1018 vento: Nord S 13
30 Agosto 2026 05:35 tempo osservato: Sereno Sereno 23 56 1018 vento: Nord S 16.7
30 Agosto 2026 05:15 tempo osservato: Sereno Sereno 23 56 1018 vento: Nord S 14.8
30 Agosto 2026 04:35 tempo osservato: Sereno Sereno 23 56 1018 vento: Nord S/SO 14.8
30 Agosto 2026 04:15 tempo osservato: Sereno Sereno 23 56 1018 vento: Nord S/SO 16.7
30 Agosto 2026 03:35 tempo osservato: Sereno Sereno 23 56 1018 vento: Nord S/SO 13
30 Agosto 2026 03:15 tempo osservato: Sereno Sereno 24 53 1018 vento: Nord S/SO 14.8
30 Agosto 2026 02:55 tempo osservato: Sereno Sereno 24 50 1018 vento: Nord S/SO 14.8
30 Agosto 2026 02:35 tempo osservato: Poco Nuvoloso Poco Nuvoloso 24 50 1018 vento: Nord S/SO 13
30 Agosto 2026 02:15 tempo osservato: Sereno Sereno 24 50 1018 vento: Nord S/SO 14.8
30 Agosto 2026 01:55 tempo osservato: Sereno Sereno 25 47 1018 vento: Nord S 14.8
30 Agosto 2026 00:55 tempo osservato: Sereno Sereno 26 41 1019 vento: Nord S 16.7
30 Agosto 2026 00:35 tempo osservato: Sereno Sereno 26 41 1018 vento: Nord S 20.3